Time;durP1;ratioP1;P1;durP2;ratioP2;P2;SDS_P1;SDS_P2;PMS_P1;PMS_P2;Temp;Humidity;BMP_temperature;BMP_pressure;BME280_temperature;BME280_humidity;BME280_pressure;Samples;Min_cycle;Max_cycle;Signal;HPM_P1;HPM_P2
2023/01/22 00:01:35;;;;;;;13.38;11.27;;;;;;;-0.08;75.07;99556.88;5104907;28;20040;-75
2023/01/22 00:04:03;;;;;;;13.10;11.60;;;;;;;0.04;75.00;99576.75;5105076;28;20050;-75
2023/01/22 00:06:30;;;;;;;12.93;10.88;;;;;;;0.04;75.02;99580.22;5105729;28;20052;-74
2023/01/22 00:09:02;;;;;;;14.30;11.70;;;;;;;0.06;75.08;99575.84;5104974;28;20043;-75
2023/01/22 00:11:29;;;;;;;13.68;11.02;;;;;;;0.05;75.03;99574.13;5105174;28;20262;-74
2023/01/22 00:13:56;;;;;;;13.65;11.82;;;;;;;0.05;75.20;99568.06;5105956;28;20047;-75
2023/01/22 00:16:23;;;;;;;12.85;10.77;;;;;;;0.03;75.33;99572.41;5106325;28;20036;-75
2023/01/22 00:18:51;;;;;;;13.90;10.68;;;;;;;-3.15;75.06;99037.56;5105903;28;20052;-74
2023/01/22 00:21:18;;;;;;;14.18;11.50;;;;;;;0.03;75.38;99575.88;5104876;28;20036;-74
2023/01/22 00:23:45;;;;;;;14.15;10.88;;;;;;;0.04;75.25;99582.81;5105436;28;20058;-74
2023/01/22 00:26:14;;;;;;;13.18;11.65;;;;;;;0.04;75.40;99580.22;5106161;28;20107;-75
2023/01/22 00:28:41;;;;;;;15.00;11.82;;;;;;;0.04;75.43;99582.81;5104820;28;20070;-75
2023/01/22 00:31:09;;;;;;;13.95;11.05;;;;;;;0.05;75.44;99644.50;5105763;28;20058;-75
2023/01/22 00:33:38;;;;;;;12.68;9.93;;;;;;;0.04;75.66;99577.63;5105076;28;20207;-75
2023/01/22 00:36:09;;;;;;;13.90;11.48;;;;;;;0.07;75.59;99580.19;5105607;28;20203;-75
2023/01/22 00:38:36;;;;;;;17.52;11.50;;;;;;;0.08;75.50;99578.44;5106078;28;20040;-75
2023/01/22 00:41:04;;;;;;;14.35;11.10;;;;;;;0.08;75.59;99589.75;5104597;28;20042;-75
2023/01/22 00:43:32;;;;;;;16.20;12.02;;;;;;;0.07;75.50;99582.81;5105655;28;20298;-75
2023/01/22 00:45:59;;;;;;;13.90;12.45;;;;;;;0.06;75.65;99580.22;5105974;28;20090;-75
2023/01/22 00:48:26;;;;;;;12.63;10.57;;;;;;;-0.14;75.63;99549.13;5105442;28;20046;-77
2023/01/22 00:50:53;;;;;;;13.23;10.95;;;;;;;0.06;75.62;99591.50;5104394;28;20032;-75
2023/01/22 00:53:21;;;;;;;12.65;10.10;;;;;;;0.05;75.67;99594.13;5105230;28;20107;-75
2023/01/22 00:55:51;;;;;;;12.40;10.63;;;;;;;0.06;75.65;99596.72;5105540;28;20048;-75
2023/01/22 00:58:18;;;;;;;12.00;10.68;;;;;;;0.06;75.73;99594.09;5105390;28;20199;-75
2023/01/22 01:00:45;;;;;;;13.13;11.10;;;;;;;0.02;75.62;99602.81;5105174;28;20036;-75
2023/01/22 01:03:29;;;;;;;13.70;10.80;;;;;;;0.07;75.33;99603.66;5105210;28;20101;-74
2023/01/22 01:05:57;;;;;;;13.85;10.55;;;;;;;0.07;75.51;99610.59;5104492;28;20134;-75
2023/01/22 01:08:26;;;;;;;11.68;10.23;;;;;;;0.08;75.36;99609.72;5087766;28;20047;-75
2023/01/22 01:10:55;;;;;;;11.73;10.52;;;;;;;0.09;75.25;99606.25;5104406;28;20115;-75
2023/01/22 01:13:22;;;;;;;13.40;11.48;;;;;;;0.09;75.47;99619.28;5105268;28;20050;-75
2023/01/22 01:15:49;;;;;;;12.32;10.73;;;;;;;0.10;75.39;99623.59;5109465;28;20063;-75
2023/01/22 01:18:16;;;;;;;12.52;9.90;;;;;;;0.10;75.16;99627.06;5108202;28;20292;-75
2023/01/22 01:20:43;;;;;;;11.38;9.98;;;;;;;0.11;75.26;99625.34;5109448;28;20040;-75
2023/01/22 01:23:10;;;;;;;12.57;9.88;;;;;;;0.11;75.31;99626.19;5109168;28;20302;-75
2023/01/22 01:25:42;;;;;;;12.25;10.15;;;;;;;0.14;75.24;99630.53;5109502;28;20036;-75
2023/01/22 01:28:08;;;;;;;11.55;10.15;;;;;;;0.15;75.18;99619.22;5108537;28;20226;-74
2023/01/22 01:30:35;;;;;;;11.80;10.38;;;;;;;-0.24;75.20;99555.28;5109034;28;20296;-75
2023/01/22 01:33:02;;;;;;;12.32;10.55;;;;;;;0.11;75.35;99627.94;5108314;28;20048;-75
2023/01/22 01:35:29;;;;;;;13.25;10.20;;;;;;;0.11;75.01;99634.03;5108665;28;20053;-74
2023/01/22 01:37:55;;;;;;;12.50;10.25;;;;;;;0.09;75.16;99651.41;5107877;28;20204;-74
2023/01/22 01:40:23;;;;;;;12.95;10.32;;;;;;;0.11;75.21;99656.59;5108924;28;20306;-74
2023/01/22 01:42:51;;;;;;;14.40;11.52;;;;;;;0.10;75.06;99654.88;5108614;28;20211;-74
2023/01/22 01:45:29;;;;;;;12.40;11.02;;;;;;;0.11;75.42;99641.84;5107965;28;20058;-74
2023/01/22 01:48:07;;;;;;;13.73;11.75;;;;;;;0.12;75.37;99627.94;5108793;28;20055;-74
2023/01/22 01:50:34;;;;;;;12.13;10.20;;;;;;;0.14;75.04;99615.75;5109024;28;20043;-74
2023/01/22 01:53:02;;;;;;;13.30;11.35;;;;;;;0.16;75.08;99614.00;5108381;28;20044;-75
2023/01/22 01:55:31;;;;;;;12.38;10.40;;;;;;;0.15;75.10;99609.66;5107859;28;20338;-74
2023/01/22 01:58:05;;;;;;;15.77;12.43;;;;;;;0.15;75.21;99614.88;5108244;28;20043;-75
2023/01/22 02:00:35;;;;;;;14.80;12.60;;;;;;;0.14;75.17;99615.75;5108753;28;20089;-75
2023/01/22 02:03:02;;;;;;;15.57;12.57;;;;;;;0.13;75.10;99616.63;5108209;28;20056;-74
2023/01/22 02:05:34;;;;;;;14.05;12.05;;;;;;;0.12;75.08;99625.31;5107338;28;20047;-74
2023/01/22 02:08:01;;;;;;;13.35;11.93;;;;;;;0.13;75.29;99629.66;5107071;28;20048;-74
2023/01/22 02:10:28;;;;;;;14.50;11.85;;;;;;;0.14;75.36;99625.31;5108629;28;20121;-75
2023/01/22 02:12:57;;;;;;;17.55;12.80;;;;;;;0.12;75.23;99614.91;5108621;28;20046;-74
2023/01/22 02:15:25;;;;;;;14.35;12.43;;;;;;;0.11;75.27;99610.56;5107884;28;20044;-75
2023/01/22 02:17:52;;;;;;;14.20;12.57;;;;;;;0.11;75.19;99615.78;5107075;28;20043;-74
2023/01/22 02:20:19;;;;;;;14.07;12.25;;;;;;;-0.46;75.41;99519.00;5106982;28;20141;-75
2023/01/22 02:22:48;;;;;;;14.13;12.05;;;;;;;0.00;75.21;99581.13;5107871;28;20047;-74
2023/01/22 02:25:16;;;;;;;15.57;12.05;;;;;;;-0.45;75.16;99519.88;5106826;28;20046;-75
2023/01/22 02:27:43;;;;;;;17.67;12.70;;;;;;;0.14;75.23;99623.56;5107761;28;20356;-75
2023/01/22 02:30:11;;;;;;;15.23;12.93;;;;;;;0.14;75.07;99620.09;5107726;28;20081;-75
2023/01/22 02:32:38;;;;;;;14.57;12.63;;;;;;;0.13;75.42;99623.56;5107906;28;20180;-75
2023/01/22 02:35:05;;;;;;;14.38;12.43;;;;;;;-0.14;75.36;99580.38;5108138;28;20036;-74
2023/01/22 02:37:32;;;;;;;16.23;13.07;;;;;;;0.14;75.33;99628.78;5106702;28;20047;-74
2023/01/22 02:40:00;;;;;;;16.45;13.65;;;;;;;0.15;75.21;99625.28;5107436;28;20036;-75
2023/01/22 02:42:27;;;;;;;16.42;13.30;;;;;;;0.16;75.13;99620.94;5106655;28;20036;-75
2023/01/22 02:44:54;;;;;;;16.73;12.45;;;;;;;0.17;75.13;99626.16;5107972;28;20044;-75
2023/01/22 02:47:20;;;;;;;15.38;12.57;;;;;;;0.14;75.13;99620.97;5107878;28;20040;-75
2023/01/22 02:49:47;;;;;;;17.67;13.63;;;;;;;0.16;75.04;99624.41;5107922;28;20082;-74
2023/01/22 02:52:14;;;;;;;14.55;12.23;;;;;;;0.14;75.24;99631.38;5107563;28;20050;-74
2023/01/22 02:54:41;;;;;;;14.98;12.13;;;;;;;-0.46;75.29;99534.63;5107284;28;20043;-75
2023/01/22 02:57:09;;;;;;;15.13;12.55;;;;;;;0.15;75.14;99633.13;5107141;28;20040;-75
2023/01/22 02:59:36;;;;;;;16.55;12.55;;;;;;;0.16;75.18;99624.41;5106180;28;20115;-74
2023/01/22 03:02:02;;;;;;;13.73;11.70;;;;;;;0.16;75.18;99614.00;5106997;28;20296;-74
2023/01/22 03:04:29;;;;;;;15.55;11.93;;;;;;;0.14;75.20;99607.94;5106223;28;20048;-75
2023/01/22 03:06:56;;;;;;;16.13;12.02;;;;;;;-0.71;75.03;99460.22;5107625;28;20040;-75
2023/01/22 03:09:23;;;;;;;13.57;11.82;;;;;;;0.16;75.02;99595.75;5107254;28;20050;-75
2023/01/22 03:11:50;;;;;;;14.65;11.63;;;;;;;0.17;75.02;99591.41;5107458;28;20107;-75
2023/01/22 03:22:31;;;;;;;13.97;11.67;;;;;;;0.09;75.17;99604.50;5106843;28;20044;-75
2023/01/22 03:25:00;;;;;;;14.82;12.65;;;;;;;0.10;75.30;99600.16;5106756;28;20425;-74
2023/01/22 03:27:27;;;;;;;14.48;12.35;;;;;;;0.11;75.23;99602.75;5106867;28;20093;-74
2023/01/22 03:29:56;;;;;;;14.80;12.25;;;;;;;0.13;75.25;99598.38;5106558;28;20211;-74
2023/01/22 03:32:23;;;;;;;16.70;13.30;;;;;;;-0.74;75.05;99453.28;5105728;28;20064;-74
2023/01/22 03:34:50;;;;;;;15.25;11.70;;;;;;;0.11;75.12;99594.94;5106437;28;20204;-74
2023/01/22 03:37:17;;;;;;;16.33;12.20;;;;;;;0.11;75.30;99597.53;5105277;28;20035;-74
2023/01/22 03:39:44;;;;;;;14.85;12.40;;;;;;;0.10;75.17;99598.41;5106862;28;20048;-74
2023/01/22 03:42:11;;;;;;;14.85;13.23;;;;;;;0.10;75.29;99607.97;5105682;28;20036;-74
2023/01/22 03:44:38;;;;;;;16.02;13.75;;;;;;;0.09;75.46;99601.03;5105466;28;20044;-75
2023/01/22 03:47:06;;;;;;;15.35;12.10;;;;;;;0.09;75.44;99608.84;5106786;28;20276;-75
2023/01/22 03:49:32;;;;;;;18.08;12.77;;;;;;;0.02;75.45;99600.22;5106160;28;20253;-74
2023/01/22 03:51:59;;;;;;;16.20;12.80;;;;;;;0.08;75.52;99607.13;5106174;28;20054;-74
2023/01/22 03:54:26;;;;;;;16.27;13.90;;;;;;;0.08;75.34;99610.59;5105284;28;20031;-75
2023/01/22 03:56:53;;;;;;;15.10;12.90;;;;;;;0.10;75.40;99614.03;5105165;28;20042;-75
2023/01/22 03:59:19;;;;;;;16.63;12.43;;;;;;;0.11;75.57;99613.16;5105188;28;20051;-75
2023/01/22 04:01:46;;;;;;;15.65;12.23;;;;;;;0.12;75.23;99606.22;5105964;28;20059;-75
2023/01/22 04:04:14;;;;;;;17.60;13.60;;;;;;;0.13;75.32;99606.19;5105688;28;20215;-75
2023/01/22 04:06:41;;;;;;;16.33;12.40;;;;;;;0.14;75.18;99607.06;5105117;28;20032;-75
2023/01/22 04:09:08;;;;;;;13.93;11.98;;;;;;;-0.16;75.16;99561.28;5105091;28;20058;-75
2023/01/22 04:11:34;;;;;;;16.00;13.00;;;;;;;0.11;75.12;99615.78;5104963;28;20036;-75
2023/01/22 04:14:01;;;;;;;18.58;12.20;;;;;;;0.12;75.29;99611.44;5104866;28;20036;-75
2023/01/22 04:16:28;;;;;;;16.63;13.73;;;;;;;0.12;75.13;99603.59;5106272;28;20036;-75
2023/01/22 04:18:55;;;;;;;15.65;12.85;;;;;;;0.11;75.18;99607.94;5105400;28;20059;-74
2023/01/22 04:21:23;;;;;;;14.80;12.23;;;;;;;0.11;75.11;99607.94;5105577;28;20291;-75
2023/01/22 04:23:50;;;;;;;17.10;13.43;;;;;;;0.12;75.37;99607.06;5104790;28;20062;-74
2023/01/22 04:26:16;;;;;;;15.50;12.80;;;;;;;0.14;75.28;99609.66;5105930;28;20044;-74
2023/01/22 04:28:43;;;;;;;15.82;12.35;;;;;;;0.14;75.12;99599.25;5106188;28;20217;-75
2023/01/22 04:31:10;;;;;;;17.75;13.48;;;;;;;0.14;75.16;99601.84;5105359;28;20302;-75
2023/01/22 04:33:37;;;;;;;16.65;12.63;;;;;;;-0.08;75.12;99569.91;5105891;28;20300;-75
2023/01/22 04:36:04;;;;;;;17.73;13.73;;;;;;;0.11;75.36;99605.34;5106133;28;20043;-75
2023/01/22 04:38:33;;;;;;;14.68;12.05;;;;;;;0.08;75.37;99613.19;5105915;28;20314;-75
2023/01/22 04:40:59;;;;;;;14.35;11.85;;;;;;;0.07;75.36;99606.25;5105454;28;20048;-75
2023/01/22 04:43:26;;;;;;;15.98;12.88;;;;;;;0.10;75.26;99598.41;5104684;28;20124;-74
2023/01/22 04:45:53;;;;;;;16.55;12.95;;;;;;;0.08;75.37;99599.28;5105371;28;20044;-75
2023/01/22 04:48:19;;;;;;;15.13;12.05;;;;;;;-1.19;75.37;99393.78;5105997;28;20183;-75
2023/01/22 04:50:46;;;;;;;16.85;12.65;;;;;;;0.07;75.39;99610.59;5109959;28;20040;-74
2023/01/22 04:53:13;;;;;;;17.13;13.45;;;;;;;0.07;75.25;99601.03;5109887;28;20047;-74
2023/01/22 04:55:42;;;;;;;15.55;12.82;;;;;;;0.05;75.41;99605.41;5110117;28;20058;-74
2023/01/22 04:58:09;;;;;;;17.05;11.77;;;;;;;0.06;75.24;99599.31;5109525;28;20063;-74
2023/01/22 05:00:36;;;;;;;17.25;13.55;;;;;;;0.08;75.43;99594.94;5109729;28;20036;-74
2023/01/22 05:03:04;;;;;;;15.68;12.63;;;;;;;0.06;75.29;99617.56;5108376;28;20149;-75
2023/01/22 05:05:33;;;;;;;15.32;12.32;;;;;;;0.06;75.22;99620.16;5108695;28;20044;-74
2023/01/22 05:08:00;;;;;;;14.70;11.70;;;;;;;0.09;75.34;99619.28;5108879;28;20291;-74
2023/01/22 05:10:27;;;;;;;16.55;12.57;;;;;;;0.09;75.23;99614.91;5109022;28;20097;-74
2023/01/22 05:12:56;;;;;;;15.52;12.68;;;;;;;0.11;75.21;99617.50;5109349;28;20039;-74
2023/01/22 05:15:23;;;;;;;17.65;14.05;;;;;;;0.11;75.15;99620.13;5108732;28;20047;-75
2023/01/22 05:17:50;;;;;;;15.95;11.88;;;;;;;0.10;75.18;99623.59;5109199;28;20058;-74
2023/01/22 05:20:17;;;;;;;15.30;12.77;;;;;;;0.09;75.21;99632.31;5109664;28;20042;-74
2023/01/22 05:22:44;;;;;;;15.27;12.57;;;;;;;0.08;75.32;99641.00;5108349;28;20044;-74
2023/01/22 05:25:11;;;;;;;16.75;12.75;;;;;;;0.09;75.24;99635.78;5109065;28;20048;-75
2023/01/22 05:27:37;;;;;;;14.25;12.43;;;;;;;0.12;75.36;99634.88;5109593;28;20235;-75
2023/01/22 05:30:07;;;;;;;17.25;12.73;;;;;;;0.12;75.32;99632.28;5108229;28;20036;-75
2023/01/22 05:32:34;;;;;;;16.00;12.88;;;;;;;0.11;75.38;99639.22;5107705;28;20052;-74
2023/01/22 05:35:01;;;;;;;14.48;12.30;;;;;;;0.12;75.28;99634.88;5109159;28;20053;-74
2023/01/22 05:37:28;;;;;;;14.40;11.50;;;;;;;0.12;75.13;99640.97;5108064;28;20036;-74
2023/01/22 05:39:54;;;;;;;13.93;11.63;;;;;;;0.10;75.45;99640.09;5109038;28;20048;-74
2023/01/22 05:42:21;;;;;;;15.13;12.60;;;;;;;0.10;75.57;99642.72;5108563;28;20230;-74
2023/01/22 05:44:48;;;;;;;14.75;11.55;;;;;;;0.10;75.55;99645.31;5108918;28;20096;-75
2023/01/22 05:47:16;;;;;;;16.10;12.73;;;;;;;0.09;75.93;99651.41;5109051;28;20056;-75
2023/01/22 05:49:43;;;;;;;15.20;12.02;;;;;;;0.10;75.93;99644.47;5108837;28;20061;-75
2023/01/22 05:52:10;;;;;;;15.73;12.38;;;;;;;-4.02;75.62;98952.44;5108491;28;20047;-75
2023/01/22 05:54:38;;;;;;;14.45;11.75;;;;;;;0.10;75.65;99660.09;5108497;28;20048;-75
2023/01/22 05:57:05;;;;;;;15.35;12.13;;;;;;;0.10;75.78;99655.75;5108444;28;20032;-75
2023/01/22 05:59:32;;;;;;;14.15;11.23;;;;;;;0.10;76.03;99647.94;5108476;28;20196;-75
2023/01/22 06:01:59;;;;;;;14.68;11.25;;;;;;;0.13;75.98;99647.03;5107796;28;20079;-75
2023/01/22 06:04:27;;;;;;;13.93;11.65;;;;;;;0.12;76.03;99651.38;5108564;28;20314;-75
2023/01/22 06:06:54;;;;;;;14.57;11.48;;;;;;;0.14;75.94;99648.75;5107998;28;20089;-75
2023/01/22 06:09:21;;;;;;;14.82;12.07;;;;;;;0.12;75.97;99646.16;5108434;28;20255;-75
2023/01/22 06:11:48;;;;;;;16.58;12.18;;;;;;;0.11;76.26;99646.19;5108191;28;20040;-75
2023/01/22 06:14:15;;;;;;;12.40;10.25;;;;;;;0.10;76.44;99645.31;5108283;28;20036;-75
2023/01/22 06:16:41;;;;;;;15.02;10.95;;;;;;;-0.60;76.24;99539.06;5107180;28;20405;-75
2023/01/22 06:19:09;;;;;;;14.65;11.38;;;;;;;-0.59;76.17;99537.34;5108550;28;20046;-75
2023/01/22 06:21:37;;;;;;;14.15;11.73;;;;;;;0.10;76.54;99658.34;5107935;28;20231;-75
2023/01/22 06:24:04;;;;;;;14.15;10.55;;;;;;;0.13;76.41;99663.53;5107047;28;20044;-75
2023/01/22 06:26:31;;;;;;;14.70;11.85;;;;;;;0.13;76.76;99662.69;5107059;28;20042;-75
2023/01/22 06:28:57;;;;;;;15.60;11.75;;;;;;;0.09;76.89;99658.38;5106998;28;20043;-75
2023/01/22 06:31:24;;;;;;;13.30;9.77;;;;;;;0.10;76.90;99654.88;5108312;28;20044;-75
2023/01/22 06:33:53;;;;;;;13.95;10.70;;;;;;;0.09;76.92;99656.63;5106842;28;20039;-75
2023/01/22 06:36:19;;;;;;;15.98;11.85;;;;;;;0.10;77.08;99657.50;5107928;28;20314;-75
2023/01/22 06:38:48;;;;;;;14.75;11.82;;;;;;;0.09;77.25;99655.75;5108210;28;20052;-75
2023/01/22 06:41:14;;;;;;;12.98;10.20;;;;;;;0.09;76.99;99660.97;5106853;28;20073;-75
2023/01/22 06:43:41;;;;;;;15.02;11.43;;;;;;;0.09;77.24;99661.84;5107755;28;20292;-75
2023/01/22 06:46:08;;;;;;;12.73;10.52;;;;;;;0.11;77.73;99660.06;5107734;28;20051;-75
2023/01/22 06:48:34;;;;;;;14.40;10.27;;;;;;;-0.03;77.74;99646.28;5106588;28;20040;-75
2023/01/22 06:51:01;;;;;;;13.30;10.60;;;;;;;0.07;77.68;99665.31;5107940;28;20042;-75
2023/01/22 06:53:28;;;;;;;12.65;9.23;;;;;;;0.06;77.67;99671.41;5107890;28;20054;-74
2023/01/22 06:55:58;;;;;;;13.38;10.25;;;;;;;0.06;77.64;99666.22;5107197;28;20039;-75
2023/01/22 06:58:25;;;;;;;13.23;9.88;;;;;;;0.06;77.53;99664.47;5106379;28;20043;-75
2023/01/22 07:00:52;;;;;;;12.20;9.25;;;;;;;0.08;77.55;99667.94;5107559;28;20051;-75
2023/01/22 07:03:19;;;;;;;11.02;9.60;;;;;;;0.10;77.61;99678.34;5106074;28;20312;-75
2023/01/22 07:05:46;;;;;;;10.82;9.02;;;;;;;0.08;77.72;99677.47;5107383;28;20043;-75
2023/01/22 07:08:15;;;;;;;10.50;8.27;;;;;;;0.06;77.85;99677.50;5106179;28;20044;-75
2023/01/22 07:10:42;;;;;;;12.18;8.20;;;;;;;0.06;77.66;99674.03;5107473;28;20268;-75
2023/01/22 07:13:10;;;;;;;12.15;9.10;;;;;;;0.06;77.75;99681.84;5106596;28;20204;-75
2023/01/22 07:15:37;;;;;;;12.13;9.77;;;;;;;0.04;77.84;99689.66;5106112;28;20054;-75
2023/01/22 07:18:04;;;;;;;10.18;8.32;;;;;;;0.03;77.88;99685.34;5106344;28;20044;-75
2023/01/22 07:20:30;;;;;;;12.40;8.65;;;;;;;0.04;77.93;99694.88;5106915;28;20057;-75
2023/01/22 07:22:58;;;;;;;11.73;8.77;;;;;;;0.04;77.96;99696.63;5107210;28;20044;-75
2023/01/22 07:25:25;;;;;;;11.05;8.38;;;;;;;-0.62;77.89;99605.03;5105750;28;20036;-75
2023/01/22 07:27:52;;;;;;;10.57;8.38;;;;;;;0.04;78.27;99694.88;5106042;28;20042;-75
2023/01/22 07:30:20;;;;;;;9.88;8.15;;;;;;;0.04;78.23;99704.44;5106508;28;20048;-75
2023/01/22 07:32:47;;;;;;;10.02;7.78;;;;;;;0.04;78.37;99694.88;5106419;28;20036;-75
2023/01/22 07:35:14;;;;;;;12.45;8.43;;;;;;;0.04;78.43;99707.06;5105868;28;20142;-75
2023/01/22 07:37:41;;;;;;;9.75;8.20;;;;;;;0.03;78.44;99700.09;5106728;28;20044;-75
2023/01/22 07:40:09;;;;;;;8.95;7.40;;;;;;;0.04;78.29;99707.06;5106400;28;20043;-74
2023/01/22 07:42:37;;;;;;;9.50;7.35;;;;;;;0.05;78.51;99711.38;5106880;28;20040;-75
2023/01/22 07:45:04;;;;;;;9.80;7.90;;;;;;;0.06;78.50;99713.13;5105443;28;20044;-75
2023/01/22 07:47:35;;;;;;;8.07;6.93;;;;;;;0.05;78.46;99714.00;5106691;28;20115;-75
2023/01/22 07:50:02;;;;;;;10.40;7.53;;;;;;;0.06;78.47;99711.38;5105706;28;20043;-75
2023/01/22 07:52:29;;;;;;;10.05;7.68;;;;;;;0.06;78.61;99715.72;5105487;28;20085;-75
2023/01/22 07:54:56;;;;;;;9.90;7.70;;;;;;;0.07;78.47;99717.44;5106138;28;20044;-75
2023/01/22 07:57:22;;;;;;;10.02;8.27;;;;;;;0.03;78.80;99706.19;5106638;28;20044;-75
2023/01/22 07:59:49;;;;;;;10.40;8.27;;;;;;;-0.12;78.71;99694.13;5106443;28;20398;-75
2023/01/22 08:02:16;;;;;;;12.93;8.68;;;;;;;0.07;78.76;99718.31;5105961;28;20085;-75
2023/01/22 08:04:44;;;;;;;11.60;8.13;;;;;;;0.08;78.92;99727.00;5105144;28;20054;-75
2023/01/22 08:07:16;;;;;;;9.05;6.72;;;;;;;0.06;79.11;99727.00;5105960;28;20184;-75
2023/01/22 08:09:43;;;;;;;9.52;6.82;;;;;;;0.06;78.79;99729.63;5105935;28;20056;-75
2023/01/22 08:12:10;;;;;;;11.30;6.78;;;;;;;0.07;78.77;99726.13;5105047;28;20085;-75
2023/01/22 08:14:36;;;;;;;9.35;7.43;;;;;;;-0.65;78.67;99603.31;5105783;28;20215;-75
2023/01/22 08:17:03;;;;;;;9.60;6.80;;;;;;;0.12;78.79;99731.31;5105882;28;20044;-75
2023/01/22 08:19:30;;;;;;;10.32;6.95;;;;;;;0.14;78.83;99729.56;5106133;28;20333;-75
2023/01/22 08:21:58;;;;;;;9.27;7.75;;;;;;;0.13;78.81;99727.84;5104500;28;20109;-75
2023/01/22 08:24:25;;;;;;;11.30;8.60;;;;;;;0.11;78.94;99740.88;5104716;28;20062;-74
2023/01/22 08:26:52;;;;;;;8.35;6.70;;;;;;;0.13;78.90;99738.25;5105960;28;20048;-75
2023/01/22 08:29:19;;;;;;;10.95;7.10;;;;;;;0.12;78.79;99739.13;5105723;28;20032;-75
2023/01/22 08:31:46;;;;;;;11.07;8.48;;;;;;;0.12;78.85;99745.22;5104776;28;20081;-75
2023/01/22 08:34:13;;;;;;;9.63;6.97;;;;;;;0.11;79.09;99740.88;5105803;28;20038;-75
2023/01/22 08:36:39;;;;;;;10.32;7.95;;;;;;;0.12;79.02;99742.59;5104780;28;20043;-75
2023/01/22 08:39:09;;;;;;;8.25;6.63;;;;;;;0.11;79.21;99747.81;5105623;28;20191;-75
2023/01/22 08:41:36;;;;;;;7.32;5.95;;;;;;;0.11;79.15;99737.41;5105508;28;20032;-75
2023/01/22 08:44:03;;;;;;;8.57;6.78;;;;;;;0.11;79.28;99740.88;5104589;28;20039;-75
2023/01/22 08:46:30;;;;;;;7.13;5.50;;;;;;;0.12;79.38;99744.34;5105046;28;20044;-75
2023/01/22 08:48:57;;;;;;;8.07;6.10;;;;;;;0.10;79.27;99746.97;5105876;28;20044;-75
2023/01/22 08:51:25;;;;;;;8.48;6.85;;;;;;;0.10;79.30;99751.31;5105732;28;20089;-75
2023/01/22 08:53:52;;;;;;;8.20;6.10;;;;;;;0.10;79.50;99752.19;5104545;28;20051;-75
2023/01/22 08:56:20;;;;;;;6.88;5.78;;;;;;;0.10;79.63;99753.91;5105391;28;20044;-75
2023/01/22 08:58:49;;;;;;;6.75;5.68;;;;;;;0.10;79.49;99746.97;5105790;28;20051;-75
2023/01/22 09:01:16;;;;;;;7.50;6.05;;;;;;;0.13;79.48;99756.50;5105208;28;20051;-75
2023/01/22 09:03:43;;;;;;;9.20;7.22;;;;;;;0.14;79.38;99756.50;5104202;28;20312;-75
2023/01/22 09:06:10;;;;;;;8.85;6.88;;;;;;;0.16;79.22;99762.56;5104428;28;20295;-75
2023/01/22 09:08:37;;;;;;;8.30;5.50;;;;;;;0.16;79.47;99770.38;5104572;28;20047;-75
2023/01/22 09:11:05;;;;;;;10.40;7.45;;;;;;;0.18;79.36;99772.97;5105431;28;20048;-75
2023/01/22 09:13:33;;;;;;;9.43;6.38;;;;;;;0.17;79.42;99776.47;5105328;28;20288;-75
2023/01/22 09:16:00;;;;;;;10.27;6.40;;;;;;;0.19;79.39;99780.78;5105101;28;20044;-75
2023/01/22 09:18:27;;;;;;;9.93;7.72;;;;;;;0.17;79.30;99781.66;5105159;28;20052;-75
2023/01/22 09:20:54;;;;;;;9.40;6.82;;;;;;;0.15;79.39;99775.59;5104934;28;20055;-75
2023/01/22 09:23:21;;;;;;;10.20;7.85;;;;;;;0.19;79.14;99779.91;5105327;28;20039;-75
2023/01/22 09:25:47;;;;;;;8.90;6.55;;;;;;;0.20;79.12;99779.03;5104107;28;20052;-75
2023/01/22 09:28:14;;;;;;;8.85;6.22;;;;;;;0.21;78.97;99776.44;5105193;28;20093;-75
2023/01/22 09:30:43;;;;;;;10.23;7.07;;;;;;;0.24;78.94;99788.56;5105048;28;20040;-75
2023/01/22 09:33:09;;;;;;;9.85;7.30;;;;;;;0.21;79.12;99784.25;5104791;28;20036;-75
2023/01/22 09:35:36;;;;;;;10.98;7.72;;;;;;;0.21;78.94;99784.25;5107207;28;20039;-75
2023/01/22 09:38:04;;;;;;;11.70;7.85;;;;;;;0.20;79.05;99792.94;5108410;28;20230;-75
2023/01/22 09:40:42;;;;;;;10.20;7.65;;;;;;;0.20;79.18;99782.50;5108691;28;20058;-75
2023/01/22 09:43:23;;;;;;;11.02;8.25;;;;;;;0.04;79.08;99759.16;5108674;28;20040;-75
2023/01/22 09:45:54;;;;;;;11.43;9.40;;;;;;;0.22;79.24;99777.28;5108390;28;20056;-75
2023/01/22 09:48:24;;;;;;;11.02;8.30;;;;;;;-0.09;78.90;99719.28;5107681;28;20040;-75
2023/01/22 09:50:51;;;;;;;10.70;8.23;;;;;;;0.26;79.04;99779.00;5107533;28;20050;-75
2023/01/22 09:53:21;;;;;;;11.73;8.63;;;;;;;0.25;78.92;99778.13;5108577;28;20183;-75
2023/01/22 09:55:51;;;;;;;13.77;8.85;;;;;;;0.26;79.09;99777.25;5108181;28;20051;-75
2023/01/22 09:58:23;;;;;;;12.77;9.10;;;;;;;0.30;79.23;99775.50;5108190;28;20048;-75
2023/01/22 10:00:54;;;;;;;14.00;10.63;;;;;;;0.33;79.04;99780.69;5108563;28;20040;-75
2023/01/22 10:03:26;;;;;;;12.40;8.82;;;;;;;0.35;78.94;99780.69;5107995;28;20043;-75
2023/01/22 10:05:58;;;;;;;10.02;7.60;;;;;;;0.35;79.11;99789.38;5107435;28;20284;-75
2023/01/22 10:08:29;;;;;;;12.38;8.60;;;;;;;0.38;78.99;99789.34;5108498;28;20047;-75
2023/01/22 10:10:59;;;;;;;11.02;8.70;;;;;;;0.40;79.01;99784.13;5108099;28;20163;-75
2023/01/22 10:13:31;;;;;;;10.80;8.30;;;;;;;0.43;79.08;99795.41;5108204;28;20044;-75
2023/01/22 10:15:59;;;;;;;11.70;8.48;;;;;;;0.46;79.05;99797.97;5108079;28;20036;-75
2023/01/22 10:18:33;;;;;;;11.00;7.70;;;;;;;0.47;79.03;99796.25;5108044;28;20059;-75
2023/01/22 10:21:04;;;;;;;11.23;8.30;;;;;;;-0.10;78.90;99699.31;5107021;28;20032;-75
2023/01/22 10:23:34;;;;;;;9.32;7.25;;;;;;;0.47;78.81;99797.09;5106768;28;20044;-75
2023/01/22 10:26:07;;;;;;;11.10;8.35;;;;;;;0.47;78.90;99802.31;5108036;28;20292;-75
2023/01/22 10:28:35;;;;;;;10.77;8.57;;;;;;;0.48;78.96;99803.19;5107599;28;20090;-75
2023/01/22 10:31:03;;;;;;;9.30;7.85;;;;;;;0.50;78.73;99806.66;5107764;28;20040;-75
2023/01/22 10:33:30;;;;;;;10.25;8.23;;;;;;;0.50;78.68;99801.44;5106810;28;20028;-75
2023/01/22 10:35:57;;;;;;;10.48;8.18;;;;;;;0.49;78.77;99807.53;5107625;28;20054;-75
2023/01/22 10:38:27;;;;;;;10.68;7.97;;;;;;;0.52;78.73;99810.97;5107791;28;20053;-75
2023/01/22 10:40:56;;;;;;;10.77;8.57;;;;;;;0.52;78.92;99810.97;5106696;28;20102;-75
2023/01/22 10:43:32;;;;;;;11.52;8.30;;;;;;;0.53;78.72;99801.41;5107516;28;20280;-75
2023/01/22 10:46:05;;;;;;;8.98;7.25;;;;;;;0.56;78.78;99809.22;5106996;28;20028;-75
2023/01/22 10:48:33;;;;;;;11.13;7.95;;;;;;;0.57;78.79;99805.72;5107555;28;20054;-75
2023/01/22 10:51:12;;;;;;;10.55;7.97;;;;;;;0.59;78.66;99807.44;5106959;28;20040;-75
2023/01/22 10:53:45;;;;;;;10.57;7.90;;;;;;;0.59;78.83;99804.84;5107476;28;20130;-75
2023/01/22 10:56:13;;;;;;;10.48;8.00;;;;;;;0.62;78.59;99811.78;5107056;28;20054;-75
2023/01/22 10:58:47;;;;;;;11.18;7.75;;;;;;;0.63;78.65;99808.28;5106278;28;20265;-75
2023/01/22 11:01:29;;;;;;;10.90;8.65;;;;;;;0.64;78.90;99812.63;5106853;28;20031;-75
2023/01/22 11:03:56;;;;;;;10.82;8.15;;;;;;;0.36;78.46;99762.41;5106891;28;20039;-75
2023/01/22 11:06:27;;;;;;;12.95;9.73;;;;;;;0.68;78.66;99803.91;5106767;28;20050;-75
2023/01/22 11:09:01;;;;;;;12.15;7.93;;;;;;;0.51;78.74;99774.47;5106850;28;20043;-75
2023/01/22 11:11:35;;;;;;;10.60;7.88;;;;;;;0.67;78.75;99806.50;5106957;28;20054;-75
2023/01/22 11:14:06;;;;;;;8.88;7.22;;;;;;;0.69;78.94;99812.59;5106837;28;20148;-75
2023/01/22 11:16:37;;;;;;;11.43;8.02;;;;;;;0.67;78.86;99796.09;5106666;28;20200;-75
2023/01/22 11:19:09;;;;;;;12.75;8.00;;;;;;;0.31;78.90;99740.72;5106884;28;20231;-75
2023/01/22 11:21:39;;;;;;;10.50;7.43;;;;;;;0.73;78.67;99806.47;5106891;28;20047;-75
2023/01/22 11:24:18;;;;;;;9.35;7.32;;;;;;;0.76;78.85;99801.22;5106524;28;20134;-75
2023/01/22 11:27:10;;;;;;;9.13;7.07;;;;;;;0.78;78.90;99797.72;5107204;28;20059;-75
2023/01/22 11:30:00;;;;;;;12.80;7.75;;;;;;;0.82;78.43;99798.56;5067951;28;20132;-75
2023/01/22 11:32:44;;;;;;;8.98;7.38;;;;;;;0.82;78.30;99796.81;5106847;28;20062;-75
2023/01/22 11:35:30;;;;;;;9.48;6.93;;;;;;;0.84;78.35;99802.88;5106647;28;20047;-75
2023/01/22 11:38:16;;;;;;;7.47;6.60;;;;;;;0.87;78.29;99797.63;5106150;28;20044;-75
2023/01/22 11:40:59;;;;;;;9.10;6.80;;;;;;;0.89;78.07;99795.88;5105407;28;20036;-75
2023/01/22 11:43:40;;;;;;;11.35;8.43;;;;;;;0.91;78.41;99790.66;5106169;28;20031;-75